sensor_id;sensor_type;location;lat;lon;timestamp;P1;durP1;ratioP1;P2;durP2;ratioP2
48767;SDS011;34933;40.968;14.538;2022-08-21T00:02:30;3.63;;;2.60;;
48767;SDS011;34933;40.968;14.538;2022-08-21T00:05:16;2.67;;;2.33;;
48767;SDS011;34933;40.968;14.538;2022-08-21T00:08:01;5.80;;;2.92;;
48767;SDS011;34933;40.968;14.538;2022-08-21T00:10:47;3.13;;;2.05;;
48767;SDS011;34933;40.968;14.538;2022-08-21T00:13:32;5.07;;;3.33;;
48767;SDS011;34933;40.968;14.538;2022-08-21T00:16:16;4.18;;;2.20;;
48767;SDS011;34933;40.968;14.538;2022-08-21T00:19:01;3.55;;;2.28;;
48767;SDS011;34933;40.968;14.538;2022-08-21T00:21:47;5.20;;;2.25;;
48767;SDS011;34933;40.968;14.538;2022-08-21T00:24:32;3.13;;;2.50;;
48767;SDS011;34933;40.968;14.538;2022-08-21T00:27:16;7.15;;;2.80;;
48767;SDS011;34933;40.968;14.538;2022-08-21T00:30:01;4.60;;;2.90;;
48767;SDS011;34933;40.968;14.538;2022-08-21T00:32:48;7.35;;;2.42;;
48767;SDS011;34933;40.968;14.538;2022-08-21T00:35:34;4.40;;;2.13;;
48767;SDS011;34933;40.968;14.538;2022-08-21T00:38:20;4.88;;;2.88;;
48767;SDS011;34933;40.968;14.538;2022-08-21T00:41:06;5.00;;;2.58;;
48767;SDS011;34933;40.968;14.538;2022-08-21T00:43:53;5.78;;;2.83;;
48767;SDS011;34933;40.968;14.538;2022-08-21T00:46:39;3.75;;;3.00;;
48767;SDS011;34933;40.968;14.538;2022-08-21T00:49:24;7.82;;;3.08;;
48767;SDS011;34933;40.968;14.538;2022-08-21T00:52:10;7.20;;;2.92;;
48767;SDS011;34933;40.968;14.538;2022-08-21T00:54:58;6.22;;;3.30;;
48767;SDS011;34933;40.968;14.538;2022-08-21T00:57:45;6.75;;;2.67;;
48767;SDS011;34933;40.968;14.538;2022-08-21T01:00:35;5.05;;;3.08;;
48767;SDS011;34933;40.968;14.538;2022-08-21T01:03:22;6.28;;;2.60;;
48767;SDS011;34933;40.968;14.538;2022-08-21T01:06:09;12.25;;;3.00;;
48767;SDS011;34933;40.968;14.538;2022-08-21T01:08:54;4.65;;;2.38;;
48767;SDS011;34933;40.968;14.538;2022-08-21T01:11:39;6.88;;;2.90;;
48767;SDS011;34933;40.968;14.538;2022-08-21T01:14:26;4.65;;;2.38;;
48767;SDS011;34933;40.968;14.538;2022-08-21T01:17:12;3.15;;;2.35;;
48767;SDS011;34933;40.968;14.538;2022-08-21T01:19:58;7.30;;;2.65;;
48767;SDS011;34933;40.968;14.538;2022-08-21T01:22:43;8.65;;;2.42;;
48767;SDS011;34933;40.968;14.538;2022-08-21T01:25:28;3.70;;;2.70;;
48767;SDS011;34933;40.968;14.538;2022-08-21T01:28:13;4.32;;;2.20;;
48767;SDS011;34933;40.968;14.538;2022-08-21T01:30:58;3.78;;;2.42;;
48767;SDS011;34933;40.968;14.538;2022-08-21T01:33:45;4.25;;;2.30;;
48767;SDS011;34933;40.968;14.538;2022-08-21T01:36:30;7.38;;;2.63;;
48767;SDS011;34933;40.968;14.538;2022-08-21T01:39:15;4.65;;;2.50;;
48767;SDS011;34933;40.968;14.538;2022-08-21T01:41:59;4.65;;;2.58;;
48767;SDS011;34933;40.968;14.538;2022-08-21T01:44:44;4.32;;;2.40;;
48767;SDS011;34933;40.968;14.538;2022-08-21T01:47:29;3.00;;;2.40;;
48767;SDS011;34933;40.968;14.538;2022-08-21T01:50:14;4.10;;;2.08;;
48767;SDS011;34933;40.968;14.538;2022-08-21T01:53:00;8.55;;;2.53;;
48767;SDS011;34933;40.968;14.538;2022-08-21T01:55:45;4.43;;;2.78;;
48767;SDS011;34933;40.968;14.538;2022-08-21T01:58:30;3.60;;;2.35;;
48767;SDS011;34933;40.968;14.538;2022-08-21T02:01:15;4.40;;;2.40;;
48767;SDS011;34933;40.968;14.538;2022-08-21T02:04:00;3.65;;;2.17;;
48767;SDS011;34933;40.968;14.538;2022-08-21T02:06:45;4.88;;;2.55;;
48767;SDS011;34933;40.968;14.538;2022-08-21T02:09:29;5.70;;;2.97;;
48767;SDS011;34933;40.968;14.538;2022-08-21T02:12:14;6.25;;;2.25;;
48767;SDS011;34933;40.968;14.538;2022-08-21T02:14:59;5.25;;;2.33;;
48767;SDS011;34933;40.968;14.538;2022-08-21T02:17:45;5.35;;;2.55;;
48767;SDS011;34933;40.968;14.538;2022-08-21T02:20:42;6.80;;;2.40;;
48767;SDS011;34933;40.968;14.538;2022-08-21T02:23:28;4.35;;;2.30;;
48767;SDS011;34933;40.968;14.538;2022-08-21T02:26:13;6.63;;;2.92;;
48767;SDS011;34933;40.968;14.538;2022-08-21T02:28:58;2.30;;;2.00;;
48767;SDS011;34933;40.968;14.538;2022-08-21T02:31:43;3.15;;;2.10;;
48767;SDS011;34933;40.968;14.538;2022-08-21T02:34:27;4.85;;;2.50;;
48767;SDS011;34933;40.968;14.538;2022-08-21T02:37:12;6.45;;;2.45;;
48767;SDS011;34933;40.968;14.538;2022-08-21T02:39:58;5.18;;;2.53;;
48767;SDS011;34933;40.968;14.538;2022-08-21T02:42:43;5.00;;;2.45;;
48767;SDS011;34933;40.968;14.538;2022-08-21T02:45:28;5.25;;;2.47;;
48767;SDS011;34933;40.968;14.538;2022-08-21T02:48:15;5.30;;;2.35;;
48767;SDS011;34933;40.968;14.538;2022-08-21T02:51:07;9.73;;;2.67;;
48767;SDS011;34933;40.968;14.538;2022-08-21T02:53:57;5.22;;;2.35;;
48767;SDS011;34933;40.968;14.538;2022-08-21T02:56:41;3.50;;;2.25;;
48767;SDS011;34933;40.968;14.538;2022-08-21T02:59:26;6.00;;;2.75;;
48767;SDS011;34933;40.968;14.538;2022-08-21T03:02:11;5.15;;;2.40;;
48767;SDS011;34933;40.968;14.538;2022-08-21T03:04:55;6.43;;;2.50;;
48767;SDS011;34933;40.968;14.538;2022-08-21T03:07:42;5.32;;;2.42;;
48767;SDS011;34933;40.968;14.538;2022-08-21T03:10:28;4.30;;;2.33;;
48767;SDS011;34933;40.968;14.538;2022-08-21T03:13:15;4.47;;;2.40;;
48767;SDS011;34933;40.968;14.538;2022-08-21T03:16:00;6.90;;;2.28;;
48767;SDS011;34933;40.968;14.538;2022-08-21T03:18:45;7.57;;;2.58;;
48767;SDS011;34933;40.968;14.538;2022-08-21T03:21:29;4.50;;;2.65;;
48767;SDS011;34933;40.968;14.538;2022-08-21T03:24:14;7.90;;;2.63;;
48767;SDS011;34933;40.968;14.538;2022-08-21T03:26:59;7.20;;;2.95;;
48767;SDS011;34933;40.968;14.538;2022-08-21T03:29:44;3.90;;;2.63;;
48767;SDS011;34933;40.968;14.538;2022-08-21T03:32:28;8.25;;;2.70;;
48767;SDS011;34933;40.968;14.538;2022-08-21T03:35:14;4.85;;;2.38;;
48767;SDS011;34933;40.968;14.538;2022-08-21T03:38:00;4.05;;;2.00;;
48767;SDS011;34933;40.968;14.538;2022-08-21T03:40:44;6.95;;;2.45;;
48767;SDS011;34933;40.968;14.538;2022-08-21T03:43:29;5.40;;;2.55;;
48767;SDS011;34933;40.968;14.538;2022-08-21T03:46:15;4.20;;;2.08;;
48767;SDS011;34933;40.968;14.538;2022-08-21T03:48:59;7.97;;;3.03;;
48767;SDS011;34933;40.968;14.538;2022-08-21T03:51:44;4.32;;;2.30;;
48767;SDS011;34933;40.968;14.538;2022-08-21T03:54:29;8.65;;;2.90;;
48767;SDS011;34933;40.968;14.538;2022-08-21T03:57:13;6.50;;;2.22;;
48767;SDS011;34933;40.968;14.538;2022-08-21T03:59:58;4.70;;;2.58;;
48767;SDS011;34933;40.968;14.538;2022-08-21T04:02:43;4.53;;;2.53;;
48767;SDS011;34933;40.968;14.538;2022-08-21T04:05:27;7.13;;;2.58;;
48767;SDS011;34933;40.968;14.538;2022-08-21T04:08:15;6.15;;;2.08;;
48767;SDS011;34933;40.968;14.538;2022-08-21T04:11:03;3.80;;;2.00;;
48767;SDS011;34933;40.968;14.538;2022-08-21T04:13:49;5.88;;;2.78;;
48767;SDS011;34933;40.968;14.538;2022-08-21T04:16:33;4.45;;;2.58;;
48767;SDS011;34933;40.968;14.538;2022-08-21T04:19:18;6.63;;;3.05;;
48767;SDS011;34933;40.968;14.538;2022-08-21T04:22:02;4.65;;;2.30;;
48767;SDS011;34933;40.968;14.538;2022-08-21T04:24:47;4.70;;;2.53;;
48767;SDS011;34933;40.968;14.538;2022-08-21T04:27:32;10.82;;;3.13;;
48767;SDS011;34933;40.968;14.538;2022-08-21T04:30:17;6.70;;;2.70;;
48767;SDS011;34933;40.968;14.538;2022-08-21T04:33:02;5.90;;;2.80;;
48767;SDS011;34933;40.968;14.538;2022-08-21T04:35:48;6.82;;;2.35;;
48767;SDS011;34933;40.968;14.538;2022-08-21T04:38:33;4.32;;;2.33;;
48767;SDS011;34933;40.968;14.538;2022-08-21T04:41:17;3.88;;;2.75;;
48767;SDS011;34933;40.968;14.538;2022-08-21T04:44:02;6.57;;;2.65;;
48767;SDS011;34933;40.968;14.538;2022-08-21T04:46:47;6.20;;;2.65;;
48767;SDS011;34933;40.968;14.538;2022-08-21T04:49:31;7.68;;;2.78;;
48767;SDS011;34933;40.968;14.538;2022-08-21T04:52:17;7.10;;;2.70;;
48767;SDS011;34933;40.968;14.538;2022-08-21T04:55:05;5.03;;;2.60;;
48767;SDS011;34933;40.968;14.538;2022-08-21T04:57:52;7.05;;;2.88;;
48767;SDS011;34933;40.968;14.538;2022-08-21T05:00:37;8.50;;;2.70;;
48767;SDS011;34933;40.968;14.538;2022-08-21T05:03:21;5.20;;;2.38;;
48767;SDS011;34933;40.968;14.538;2022-08-21T05:06:07;5.35;;;2.30;;
48767;SDS011;34933;40.968;14.538;2022-08-21T05:08:54;4.35;;;2.20;;
48767;SDS011;34933;40.968;14.538;2022-08-21T05:11:39;6.68;;;2.42;;
48767;SDS011;34933;40.968;14.538;2022-08-21T05:14:25;7.60;;;3.20;;
48767;SDS011;34933;40.968;14.538;2022-08-21T05:17:10;5.47;;;3.53;;
48767;SDS011;34933;40.968;14.538;2022-08-21T05:19:55;7.07;;;3.30;;
48767;SDS011;34933;40.968;14.538;2022-08-21T05:22:40;5.40;;;2.60;;
48767;SDS011;34933;40.968;14.538;2022-08-21T05:25:25;6.30;;;2.90;;
48767;SDS011;34933;40.968;14.538;2022-08-21T05:28:09;4.32;;;3.10;;
48767;SDS011;34933;40.968;14.538;2022-08-21T05:30:54;8.13;;;4.30;;
48767;SDS011;34933;40.968;14.538;2022-08-21T05:33:38;9.10;;;4.30;;
48767;SDS011;34933;40.968;14.538;2022-08-21T05:36:23;9.75;;;5.40;;
48767;SDS011;34933;40.968;14.538;2022-08-21T05:39:08;10.13;;;6.40;;
48767;SDS011;34933;40.968;14.538;2022-08-21T05:41:53;20.35;;;8.40;;
48767;SDS011;34933;40.968;14.538;2022-08-21T05:44:37;15.05;;;8.35;;
48767;SDS011;34933;40.968;14.538;2022-08-21T05:47:22;19.35;;;9.32;;
48767;SDS011;34933;40.968;14.538;2022-08-21T05:50:07;17.65;;;9.70;;
48767;SDS011;34933;40.968;14.538;2022-08-21T05:52:52;24.95;;;11.50;;
48767;SDS011;34933;40.968;14.538;2022-08-21T05:55:37;20.20;;;11.57;;
48767;SDS011;34933;40.968;14.538;2022-08-21T05:58:22;22.13;;;10.57;;
48767;SDS011;34933;40.968;14.538;2022-08-21T06:01:07;16.48;;;9.38;;
48767;SDS011;34933;40.968;14.538;2022-08-21T06:03:52;13.85;;;8.20;;
48767;SDS011;34933;40.968;14.538;2022-08-21T06:06:37;13.43;;;6.57;;
48767;SDS011;34933;40.968;14.538;2022-08-21T06:09:22;14.77;;;6.25;;
48767;SDS011;34933;40.968;14.538;2022-08-21T06:12:07;10.18;;;6.07;;
48767;SDS011;34933;40.968;14.538;2022-08-21T06:14:53;11.70;;;6.53;;
48767;SDS011;34933;40.968;14.538;2022-08-21T06:17:38;10.85;;;6.25;;
48767;SDS011;34933;40.968;14.538;2022-08-21T06:20:23;11.30;;;6.40;;
48767;SDS011;34933;40.968;14.538;2022-08-21T06:23:07;7.20;;;4.45;;
48767;SDS011;34933;40.968;14.538;2022-08-21T06:25:52;6.85;;;4.05;;
48767;SDS011;34933;40.968;14.538;2022-08-21T06:28:37;10.70;;;3.20;;
48767;SDS011;34933;40.968;14.538;2022-08-21T06:31:23;5.05;;;3.67;;
48767;SDS011;34933;40.968;14.538;2022-08-21T06:34:09;4.05;;;3.17;;
48767;SDS011;34933;40.968;14.538;2022-08-21T06:36:54;8.65;;;3.80;;
48767;SDS011;34933;40.968;14.538;2022-08-21T06:39:38;4.53;;;3.08;;
48767;SDS011;34933;40.968;14.538;2022-08-21T06:42:24;10.57;;;2.97;;
48767;SDS011;34933;40.968;14.538;2022-08-21T06:45:09;4.32;;;2.53;;
48767;SDS011;34933;40.968;14.538;2022-08-21T06:47:54;3.17;;;2.15;;
48767;SDS011;34933;40.968;14.538;2022-08-21T06:50:39;4.70;;;2.28;;
48767;SDS011;34933;40.968;14.538;2022-08-21T06:53:23;8.15;;;2.35;;
48767;SDS011;34933;40.968;14.538;2022-08-21T06:56:08;5.03;;;2.03;;
48767;SDS011;34933;40.968;14.538;2022-08-21T06:58:53;5.05;;;2.40;;
48767;SDS011;34933;40.968;14.538;2022-08-21T07:01:37;7.53;;;2.47;;
48767;SDS011;34933;40.968;14.538;2022-08-21T07:04:22;10.13;;;2.40;;
48767;SDS011;34933;40.968;14.538;2022-08-21T07:07:07;6.25;;;2.90;;
48767;SDS011;34933;40.968;14.538;2022-08-21T07:09:51;6.50;;;2.63;;
48767;SDS011;34933;40.968;14.538;2022-08-21T07:12:36;6.90;;;2.80;;
48767;SDS011;34933;40.968;14.538;2022-08-21T07:15:20;8.00;;;2.97;;
48767;SDS011;34933;40.968;14.538;2022-08-21T07:18:05;6.22;;;2.08;;
48767;SDS011;34933;40.968;14.538;2022-08-21T07:20:51;7.70;;;2.20;;
48767;SDS011;34933;40.968;14.538;2022-08-21T07:23:42;8.23;;;2.30;;
48767;SDS011;34933;40.968;14.538;2022-08-21T07:26:29;12.63;;;3.20;;
48767;SDS011;34933;40.968;14.538;2022-08-21T07:29:13;5.90;;;3.20;;
48767;SDS011;34933;40.968;14.538;2022-08-21T07:31:58;7.50;;;3.05;;
48767;SDS011;34933;40.968;14.538;2022-08-21T07:34:43;9.45;;;2.80;;
48767;SDS011;34933;40.968;14.538;2022-08-21T07:37:28;8.15;;;3.22;;
48767;SDS011;34933;40.968;14.538;2022-08-21T07:40:13;10.18;;;3.80;;
48767;SDS011;34933;40.968;14.538;2022-08-21T07:42:58;11.85;;;3.50;;
48767;SDS011;34933;40.968;14.538;2022-08-21T07:45:45;5.20;;;2.65;;
48767;SDS011;34933;40.968;14.538;2022-08-21T07:48:29;5.63;;;2.28;;
48767;SDS011;34933;40.968;14.538;2022-08-21T07:51:14;7.60;;;2.95;;
48767;SDS011;34933;40.968;14.538;2022-08-21T07:54:00;3.33;;;2.40;;
48767;SDS011;34933;40.968;14.538;2022-08-21T07:56:45;5.43;;;2.20;;
48767;SDS011;34933;40.968;14.538;2022-08-21T07:59:29;8.20;;;3.25;;
48767;SDS011;34933;40.968;14.538;2022-08-21T08:02:21;4.65;;;2.30;;
48767;SDS011;34933;40.968;14.538;2022-08-21T08:05:10;7.50;;;2.35;;
48767;SDS011;34933;40.968;14.538;2022-08-21T08:07:56;4.65;;;2.13;;
48767;SDS011;34933;40.968;14.538;2022-08-21T08:10:40;9.40;;;1.80;;
48767;SDS011;34933;40.968;14.538;2022-08-21T08:13:26;4.28;;;1.80;;
48767;SDS011;34933;40.968;14.538;2022-08-21T08:16:10;5.70;;;2.00;;
48767;SDS011;34933;40.968;14.538;2022-08-21T08:18:55;5.38;;;2.42;;
48767;SDS011;34933;40.968;14.538;2022-08-21T08:21:40;8.10;;;2.20;;
48767;SDS011;34933;40.968;14.538;2022-08-21T08:24:24;9.18;;;2.95;;
48767;SDS011;34933;40.968;14.538;2022-08-21T08:27:09;8.10;;;2.20;;
48767;SDS011;34933;40.968;14.538;2022-08-21T08:29:54;6.82;;;3.35;;
48767;SDS011;34933;40.968;14.538;2022-08-21T08:32:39;4.25;;;2.20;;
48767;SDS011;34933;40.968;14.538;2022-08-21T08:35:24;3.78;;;1.90;;
48767;SDS011;34933;40.968;14.538;2022-08-21T08:38:09;2.78;;;2.17;;
48767;SDS011;34933;40.968;14.538;2022-08-21T08:41:06;8.10;;;2.40;;
48767;SDS011;34933;40.968;14.538;2022-08-21T08:43:58;4.25;;;2.30;;
48767;SDS011;34933;40.968;14.538;2022-08-21T08:46:47;5.15;;;2.70;;
48767;SDS011;34933;40.968;14.538;2022-08-21T08:49:38;6.70;;;2.65;;
48767;SDS011;34933;40.968;14.538;2022-08-21T08:52:34;8.40;;;2.22;;
48767;SDS011;34933;40.968;14.538;2022-08-21T08:55:25;4.18;;;2.40;;
48767;SDS011;34933;40.968;14.538;2022-08-21T08:58:25;3.97;;;2.17;;
48767;SDS011;34933;40.968;14.538;2022-08-21T09:01:16;6.75;;;2.20;;
48767;SDS011;34933;40.968;14.538;2022-08-21T09:04:02;3.47;;;2.35;;
48767;SDS011;34933;40.968;14.538;2022-08-21T09:06:53;5.40;;;2.63;;
48767;SDS011;34933;40.968;14.538;2022-08-21T09:16:00;10.07;;;2.67;;
48767;SDS011;34933;40.968;14.538;2022-08-21T09:21:50;7.35;;;3.20;;
48767;SDS011;34933;40.968;14.538;2022-08-21T09:28:08;8.10;;;2.70;;
48767;SDS011;34933;40.968;14.538;2022-08-21T09:30:55;5.45;;;2.60;;
48767;SDS011;34933;40.968;14.538;2022-08-21T09:33:41;4.70;;;2.85;;
48767;SDS011;34933;40.968;14.538;2022-08-21T09:36:31;8.02;;;2.85;;
48767;SDS011;34933;40.968;14.538;2022-08-21T09:39:32;5.57;;;2.42;;
48767;SDS011;34933;40.968;14.538;2022-08-21T09:42:25;5.50;;;2.80;;
48767;SDS011;34933;40.968;14.538;2022-08-21T09:45:13;8.55;;;2.88;;
48767;SDS011;34933;40.968;14.538;2022-08-21T09:51:07;7.00;;;2.92;;
48767;SDS011;34933;40.968;14.538;2022-08-21T09:56:57;6.18;;;3.58;;
48767;SDS011;34933;40.968;14.538;2022-08-21T10:03:19;5.55;;;3.60;;
48767;SDS011;34933;40.968;14.538;2022-08-21T10:06:06;8.65;;;2.95;;
48767;SDS011;34933;40.968;14.538;2022-08-21T10:09:07;6.00;;;3.55;;
48767;SDS011;34933;40.968;14.538;2022-08-21T10:11:58;9.43;;;3.35;;
48767;SDS011;34933;40.968;14.538;2022-08-21T10:18:35;8.85;;;3.25;;
48767;SDS011;34933;40.968;14.538;2022-08-21T10:40:25;10.85;;;3.08;;
48767;SDS011;34933;40.968;14.538;2022-08-21T10:50:08;5.28;;;2.65;;
48767;SDS011;34933;40.968;14.538;2022-08-21T11:05:17;3.70;;;2.75;;
48767;SDS011;34933;40.968;14.538;2022-08-21T11:08:10;3.55;;;2.70;;
48767;SDS011;34933;40.968;14.538;2022-08-21T11:11:00;4.05;;;2.50;;
48767;SDS011;34933;40.968;14.538;2022-08-21T11:14:36;9.55;;;4.20;;
48767;SDS011;34933;40.968;14.538;2022-08-21T11:17:37;6.03;;;2.78;;
48767;SDS011;34933;40.968;14.538;2022-08-21T11:20:30;4.53;;;2.80;;
48767;SDS011;34933;40.968;14.538;2022-08-21T11:23:45;7.18;;;3.13;;
48767;SDS011;34933;40.968;14.538;2022-08-21T11:29:29;3.95;;;2.83;;
48767;SDS011;34933;40.968;14.538;2022-08-21T11:32:27;4.88;;;2.13;;
48767;SDS011;34933;40.968;14.538;2022-08-21T11:38:33;3.80;;;2.67;;
48767;SDS011;34933;40.968;14.538;2022-08-21T11:44:23;3.38;;;2.40;;
48767;SDS011;34933;40.968;14.538;2022-08-21T11:47:23;4.13;;;1.60;;
48767;SDS011;34933;40.968;14.538;2022-08-21T11:50:16;5.00;;;1.80;;
48767;SDS011;34933;40.968;14.538;2022-08-21T11:56:16;3.47;;;2.30;;
48767;SDS011;34933;40.968;14.538;2022-08-21T11:59:07;2.78;;;2.20;;
48767;SDS011;34933;40.968;14.538;2022-08-21T12:01:58;2.67;;;2.22;;
48767;SDS011;34933;40.968;14.538;2022-08-21T12:04:51;3.83;;;2.05;;
48767;SDS011;34933;40.968;14.538;2022-08-21T12:07:39;5.10;;;2.00;;
48767;SDS011;34933;40.968;14.538;2022-08-21T12:10:32;3.08;;;2.55;;
48767;SDS011;34933;40.968;14.538;2022-08-21T12:13:25;3.45;;;1.92;;
48767;SDS011;34933;40.968;14.538;2022-08-21T12:16:14;3.45;;;2.55;;
48767;SDS011;34933;40.968;14.538;2022-08-21T12:19:13;6.10;;;2.25;;
48767;SDS011;34933;40.968;14.538;2022-08-21T12:24:47;4.82;;;2.58;;
48767;SDS011;34933;40.968;14.538;2022-08-21T12:28:07;4.60;;;2.80;;
48767;SDS011;34933;40.968;14.538;2022-08-21T12:30:51;3.55;;;1.85;;
48767;SDS011;34933;40.968;14.538;2022-08-21T12:33:38;2.47;;;1.77;;
48767;SDS011;34933;40.968;14.538;2022-08-21T12:36:44;2.90;;;2.20;;
48767;SDS011;34933;40.968;14.538;2022-08-21T12:39:34;3.50;;;1.85;;
48767;SDS011;34933;40.968;14.538;2022-08-21T12:42:23;4.80;;;2.20;;
48767;SDS011;34933;40.968;14.538;2022-08-21T12:48:25;4.72;;;2.28;;
48767;SDS011;34933;40.968;14.538;2022-08-21T12:51:23;3.80;;;2.42;;
48767;SDS011;34933;40.968;14.538;2022-08-21T12:54:20;3.80;;;2.60;;
48767;SDS011;34933;40.968;14.538;2022-08-21T13:00:09;7.32;;;2.53;;
48767;SDS011;34933;40.968;14.538;2022-08-21T13:02:56;8.15;;;2.65;;
48767;SDS011;34933;40.968;14.538;2022-08-21T13:05:41;5.63;;;2.70;;
48767;SDS011;34933;40.968;14.538;2022-08-21T13:08:26;4.85;;;2.15;;
48767;SDS011;34933;40.968;14.538;2022-08-21T13:11:12;4.07;;;1.50;;
48767;SDS011;34933;40.968;14.538;2022-08-21T13:14:01;4.55;;;1.50;;
48767;SDS011;34933;40.968;14.538;2022-08-21T13:16:52;5.63;;;1.60;;
48767;SDS011;34933;40.968;14.538;2022-08-21T13:19:41;3.60;;;1.38;;
48767;SDS011;34933;40.968;14.538;2022-08-21T13:22:26;8.80;;;2.10;;
48767;SDS011;34933;40.968;14.538;2022-08-21T13:25:16;23.23;;;5.15;;
48767;SDS011;34933;40.968;14.538;2022-08-21T13:28:06;11.57;;;2.95;;
48767;SDS011;34933;40.968;14.538;2022-08-21T13:30:53;14.07;;;3.88;;
48767;SDS011;34933;40.968;14.538;2022-08-21T13:33:39;7.28;;;2.45;;
48767;SDS011;34933;40.968;14.538;2022-08-21T13:36:26;9.88;;;2.58;;
48767;SDS011;34933;40.968;14.538;2022-08-21T13:39:17;11.15;;;3.40;;
48767;SDS011;34933;40.968;14.538;2022-08-21T13:42:03;7.28;;;2.80;;
48767;SDS011;34933;40.968;14.538;2022-08-21T13:44:52;7.35;;;2.95;;
48767;SDS011;34933;40.968;14.538;2022-08-21T13:47:38;15.52;;;3.00;;
48767;SDS011;34933;40.968;14.538;2022-08-21T13:50:23;13.05;;;5.47;;
48767;SDS011;34933;40.968;14.538;2022-08-21T13:54:13;8.20;;;3.58;;
48767;SDS011;34933;40.968;14.538;2022-08-21T13:56:30;8.38;;;4.13;;
48767;SDS011;34933;40.968;14.538;2022-08-21T13:59:24;5.30;;;3.67;;
48767;SDS011;34933;40.968;14.538;2022-08-21T14:02:16;5.40;;;2.67;;
48767;SDS011;34933;40.968;14.538;2022-08-21T14:05:02;4.18;;;2.72;;
48767;SDS011;34933;40.968;14.538;2022-08-21T14:07:47;8.70;;;3.40;;
48767;SDS011;34933;40.968;14.538;2022-08-21T14:10:36;5.43;;;3.67;;
48767;SDS011;34933;40.968;14.538;2022-08-21T14:16:23;7.70;;;3.25;;
48767;SDS011;34933;40.968;14.538;2022-08-21T14:19:21;8.35;;;4.00;;
48767;SDS011;34933;40.968;14.538;2022-08-21T14:22:22;5.60;;;2.87;;
48767;SDS011;34933;40.968;14.538;2022-08-21T14:25:27;5.20;;;2.45;;
48767;SDS011;34933;40.968;14.538;2022-08-21T14:28:37;8.80;;;2.58;;
48767;SDS011;34933;40.968;14.538;2022-08-21T14:31:27;6.18;;;2.60;;
48767;SDS011;34933;40.968;14.538;2022-08-21T14:34:14;4.90;;;2.53;;
48767;SDS011;34933;40.968;14.538;2022-08-21T14:37:01;5.15;;;2.30;;
48767;SDS011;34933;40.968;14.538;2022-08-21T14:39:45;5.47;;;2.50;;
48767;SDS011;34933;40.968;14.538;2022-08-21T14:42:30;3.33;;;2.00;;
48767;SDS011;34933;40.968;14.538;2022-08-21T14:45:20;4.78;;;1.65;;
48767;SDS011;34933;40.968;14.538;2022-08-21T14:48:11;4.30;;;1.88;;
48767;SDS011;34933;40.968;14.538;2022-08-21T14:50:55;6.90;;;3.00;;
48767;SDS011;34933;40.968;14.538;2022-08-21T14:53:40;3.90;;;2.08;;
48767;SDS011;34933;40.968;14.538;2022-08-21T14:56:25;3.05;;;2.30;;
48767;SDS011;34933;40.968;14.538;2022-08-21T14:59:10;5.07;;;2.17;;
48767;SDS011;34933;40.968;14.538;2022-08-21T15:01:55;3.53;;;2.60;;
48767;SDS011;34933;40.968;14.538;2022-08-21T15:04:40;3.90;;;2.10;;
48767;SDS011;34933;40.968;14.538;2022-08-21T15:07:26;3.10;;;2.42;;
48767;SDS011;34933;40.968;14.538;2022-08-21T15:10:11;6.70;;;2.72;;
48767;SDS011;34933;40.968;14.538;2022-08-21T15:12:56;3.67;;;2.47;;
48767;SDS011;34933;40.968;14.538;2022-08-21T15:15:42;5.93;;;2.55;;
48767;SDS011;34933;40.968;14.538;2022-08-21T15:18:28;6.38;;;2.25;;
48767;SDS011;34933;40.968;14.538;2022-08-21T15:21:14;2.83;;;2.05;;
48767;SDS011;34933;40.968;14.538;2022-08-21T15:23:58;3.50;;;1.98;;
48767;SDS011;34933;40.968;14.538;2022-08-21T15:26:43;2.17;;;1.63;;
48767;SDS011;34933;40.968;14.538;2022-08-21T15:29:29;3.40;;;1.85;;
48767;SDS011;34933;40.968;14.538;2022-08-21T15:32:19;2.58;;;1.83;;
48767;SDS011;34933;40.968;14.538;2022-08-21T15:35:09;5.22;;;2.80;;
48767;SDS011;34933;40.968;14.538;2022-08-21T15:37:54;5.88;;;1.98;;
48767;SDS011;34933;40.968;14.538;2022-08-21T15:40:39;6.22;;;2.15;;
48767;SDS011;34933;40.968;14.538;2022-08-21T15:43:29;4.28;;;2.05;;
48767;SDS011;34933;40.968;14.538;2022-08-21T15:46:35;6.20;;;2.20;;
48767;SDS011;34933;40.968;14.538;2022-08-21T15:49:21;3.00;;;2.00;;
48767;SDS011;34933;40.968;14.538;2022-08-21T15:52:06;3.25;;;2.03;;
48767;SDS011;34933;40.968;14.538;2022-08-21T15:54:51;3.28;;;2.50;;
48767;SDS011;34933;40.968;14.538;2022-08-21T15:57:36;4.78;;;2.25;;
48767;SDS011;34933;40.968;14.538;2022-08-21T16:00:31;5.73;;;2.70;;
48767;SDS011;34933;40.968;14.538;2022-08-21T16:03:18;5.50;;;1.70;;
48767;SDS011;34933;40.968;14.538;2022-08-21T16:06:05;4.72;;;2.15;;
48767;SDS011;34933;40.968;14.538;2022-08-21T16:08:50;7.60;;;2.15;;
48767;SDS011;34933;40.968;14.538;2022-08-21T16:11:34;4.63;;;1.77;;
48767;SDS011;34933;40.968;14.538;2022-08-21T16:14:19;3.85;;;2.30;;
48767;SDS011;34933;40.968;14.538;2022-08-21T16:17:05;6.55;;;2.05;;
48767;SDS011;34933;40.968;14.538;2022-08-21T16:19:50;7.68;;;3.13;;
48767;SDS011;34933;40.968;14.538;2022-08-21T16:22:35;5.50;;;2.63;;
48767;SDS011;34933;40.968;14.538;2022-08-21T16:25:21;4.60;;;2.60;;
48767;SDS011;34933;40.968;14.538;2022-08-21T16:28:07;8.43;;;2.95;;
48767;SDS011;34933;40.968;14.538;2022-08-21T16:30:54;4.35;;;2.38;;
48767;SDS011;34933;40.968;14.538;2022-08-21T16:33:43;5.72;;;2.35;;
48767;SDS011;34933;40.968;14.538;2022-08-21T16:36:32;5.32;;;2.00;;
48767;SDS011;34933;40.968;14.538;2022-08-21T16:39:17;4.97;;;1.90;;
48767;SDS011;34933;40.968;14.538;2022-08-21T16:42:02;5.25;;;2.20;;
48767;SDS011;34933;40.968;14.538;2022-08-21T16:44:47;4.95;;;2.42;;
48767;SDS011;34933;40.968;14.538;2022-08-21T16:47:32;4.68;;;2.28;;
48767;SDS011;34933;40.968;14.538;2022-08-21T16:50:19;5.45;;;2.33;;
48767;SDS011;34933;40.968;14.538;2022-08-21T16:53:05;4.18;;;2.28;;
48767;SDS011;34933;40.968;14.538;2022-08-21T16:55:51;4.28;;;2.20;;
48767;SDS011;34933;40.968;14.538;2022-08-21T16:58:37;8.35;;;2.30;;
48767;SDS011;34933;40.968;14.538;2022-08-21T17:01:27;4.72;;;2.35;;
48767;SDS011;34933;40.968;14.538;2022-08-21T17:04:14;5.68;;;2.55;;
48767;SDS011;34933;40.968;14.538;2022-08-21T17:06:58;9.18;;;8.10;;
48767;SDS011;34933;40.968;14.538;2022-08-21T17:09:43;6.78;;;5.97;;
48767;SDS011;34933;40.968;14.538;2022-08-21T17:12:28;12.73;;;9.57;;
48767;SDS011;34933;40.968;14.538;2022-08-21T17:15:17;5.63;;;3.80;;
48767;SDS011;34933;40.968;14.538;2022-08-21T17:18:05;7.07;;;3.75;;
48767;SDS011;34933;40.968;14.538;2022-08-21T17:20:53;6.38;;;4.70;;
48767;SDS011;34933;40.968;14.538;2022-08-21T17:23:38;7.07;;;3.42;;
48767;SDS011;34933;40.968;14.538;2022-08-21T17:26:22;4.68;;;2.58;;
48767;SDS011;34933;40.968;14.538;2022-08-21T17:29:07;6.68;;;4.07;;
48767;SDS011;34933;40.968;14.538;2022-08-21T17:31:55;6.20;;;5.15;;
48767;SDS011;34933;40.968;14.538;2022-08-21T17:34:40;14.85;;;10.30;;
48767;SDS011;34933;40.968;14.538;2022-08-21T17:37:25;23.10;;;19.27;;
48767;SDS011;34933;40.968;14.538;2022-08-21T17:40:10;8.77;;;3.90;;
48767;SDS011;34933;40.968;14.538;2022-08-21T17:42:58;6.72;;;3.17;;
48767;SDS011;34933;40.968;14.538;2022-08-21T17:45:43;7.55;;;3.30;;
48767;SDS011;34933;40.968;14.538;2022-08-21T17:48:28;11.10;;;3.00;;
48767;SDS011;34933;40.968;14.538;2022-08-21T17:51:14;7.68;;;4.60;;
48767;SDS011;34933;40.968;14.538;2022-08-21T17:53:59;6.68;;;2.92;;
48767;SDS011;34933;40.968;14.538;2022-08-21T17:56:44;13.32;;;3.35;;
48767;SDS011;34933;40.968;14.538;2022-08-21T17:59:29;9.40;;;3.65;;
48767;SDS011;34933;40.968;14.538;2022-08-21T18:02:14;8.50;;;3.72;;